sensor_id;sensor_type;location;lat;lon;timestamp;P1;durP1;ratioP1;P2;durP2;ratioP2
54599;SDS011;40500;51.084;16.958;2023-03-31T00:01:03;2.80;;;1.40;;
54599;SDS011;40500;51.084;16.958;2023-03-31T00:03:33;2.30;;;1.40;;
54599;SDS011;40500;51.084;16.958;2023-03-31T00:06:06;2.10;;;1.40;;
54599;SDS011;40500;51.084;16.958;2023-03-31T00:08:38;2.20;;;1.60;;
54599;SDS011;40500;51.084;16.958;2023-03-31T00:11:08;3.90;;;1.50;;
54599;SDS011;40500;51.084;16.958;2023-03-31T00:13:39;3.10;;;1.70;;
54599;SDS011;40500;51.084;16.958;2023-03-31T00:16:09;3.90;;;1.40;;
54599;SDS011;40500;51.084;16.958;2023-03-31T00:18:40;2.20;;;1.50;;
54599;SDS011;40500;51.084;16.958;2023-03-31T00:21:14;1.70;;;1.50;;
54599;SDS011;40500;51.084;16.958;2023-03-31T00:23:53;3.10;;;1.40;;
54599;SDS011;40500;51.084;16.958;2023-03-31T00:26:24;4.10;;;1.80;;
54599;SDS011;40500;51.084;16.958;2023-03-31T00:28:56;2.70;;;1.50;;
54599;SDS011;40500;51.084;16.958;2023-03-31T00:31:27;3.60;;;2.00;;
54599;SDS011;40500;51.084;16.958;2023-03-31T00:33:59;4.20;;;2.00;;
54599;SDS011;40500;51.084;16.958;2023-03-31T00:36:30;3.10;;;1.70;;
54599;SDS011;40500;51.084;16.958;2023-03-31T00:39:04;3.50;;;1.90;;
54599;SDS011;40500;51.084;16.958;2023-03-31T00:41:36;2.90;;;1.60;;
54599;SDS011;40500;51.084;16.958;2023-03-31T00:44:09;3.70;;;1.50;;
54599;SDS011;40500;51.084;16.958;2023-03-31T00:46:47;2.70;;;1.60;;
54599;SDS011;40500;51.084;16.958;2023-03-31T00:49:24;3.60;;;1.60;;
54599;SDS011;40500;51.084;16.958;2023-03-31T00:51:58;2.90;;;1.70;;
54599;SDS011;40500;51.084;16.958;2023-03-31T00:54:32;2.30;;;1.40;;
54599;SDS011;40500;51.084;16.958;2023-03-31T00:57:05;4.20;;;1.40;;
54599;SDS011;40500;51.084;16.958;2023-03-31T00:59:38;1.90;;;1.80;;
54599;SDS011;40500;51.084;16.958;2023-03-31T01:02:11;4.40;;;1.70;;
54599;SDS011;40500;51.084;16.958;2023-03-31T01:04:44;2.80;;;2.10;;
54599;SDS011;40500;51.084;16.958;2023-03-31T01:07:23;2.90;;;1.90;;
54599;SDS011;40500;51.084;16.958;2023-03-31T01:09:58;3.30;;;2.10;;
54599;SDS011;40500;51.084;16.958;2023-03-31T01:12:31;3.00;;;2.00;;
54599;SDS011;40500;51.084;16.958;2023-03-31T01:15:06;4.10;;;2.20;;
54599;SDS011;40500;51.084;16.958;2023-03-31T01:17:38;4.30;;;2.50;;
54599;SDS011;40500;51.084;16.958;2023-03-31T01:20:14;4.40;;;2.60;;
54599;SDS011;40500;51.084;16.958;2023-03-31T01:25:57;4.80;;;2.30;;
54599;SDS011;40500;51.084;16.958;2023-03-31T01:28:52;4.50;;;2.40;;
54599;SDS011;40500;51.084;16.958;2023-03-31T01:31:38;4.70;;;2.40;;
54599;SDS011;40500;51.084;16.958;2023-03-31T01:34:39;3.10;;;2.10;;
54599;SDS011;40500;51.084;16.958;2023-03-31T01:37:30;4.50;;;2.50;;
54599;SDS011;40500;51.084;16.958;2023-03-31T01:43:31;4.80;;;3.20;;
54599;SDS011;40500;51.084;16.958;2023-03-31T01:46:07;3.80;;;2.70;;
54599;SDS011;40500;51.084;16.958;2023-03-31T01:48:48;5.10;;;3.10;;
54599;SDS011;40500;51.084;16.958;2023-03-31T01:51:29;4.60;;;3.40;;
54599;SDS011;40500;51.084;16.958;2023-03-31T01:54:06;4.90;;;3.40;;
54599;SDS011;40500;51.084;16.958;2023-03-31T01:56:47;4.70;;;3.60;;
54599;SDS011;40500;51.084;16.958;2023-03-31T01:59:24;5.90;;;3.70;;
54599;SDS011;40500;51.084;16.958;2023-03-31T02:02:00;6.50;;;3.70;;
54599;SDS011;40500;51.084;16.958;2023-03-31T02:04:35;6.90;;;4.10;;
54599;SDS011;40500;51.084;16.958;2023-03-31T02:07:11;5.90;;;3.80;;
54599;SDS011;40500;51.084;16.958;2023-03-31T02:09:46;7.20;;;4.10;;
54599;SDS011;40500;51.084;16.958;2023-03-31T02:12:19;5.80;;;3.80;;
54599;SDS011;40500;51.084;16.958;2023-03-31T02:14:53;5.70;;;3.60;;
54599;SDS011;40500;51.084;16.958;2023-03-31T02:17:27;4.80;;;3.50;;
54599;SDS011;40500;51.084;16.958;2023-03-31T02:20:00;5.30;;;3.70;;
54599;SDS011;40500;51.084;16.958;2023-03-31T02:22:36;4.80;;;4.00;;
54599;SDS011;40500;51.084;16.958;2023-03-31T02:25:09;5.30;;;4.20;;
54599;SDS011;40500;51.084;16.958;2023-03-31T02:27:43;6.30;;;4.10;;
54599;SDS011;40500;51.084;16.958;2023-03-31T02:30:19;5.10;;;4.20;;
54599;SDS011;40500;51.084;16.958;2023-03-31T02:32:50;5.80;;;4.10;;
54599;SDS011;40500;51.084;16.958;2023-03-31T02:35:21;6.80;;;5.20;;
54599;SDS011;40500;51.084;16.958;2023-03-31T02:37:52;5.90;;;4.40;;
54599;SDS011;40500;51.084;16.958;2023-03-31T02:40:25;6.30;;;4.30;;
54599;SDS011;40500;51.084;16.958;2023-03-31T02:42:58;7.30;;;4.90;;
54599;SDS011;40500;51.084;16.958;2023-03-31T02:45:42;7.40;;;5.20;;
54599;SDS011;40500;51.084;16.958;2023-03-31T02:48:16;6.10;;;4.50;;
54599;SDS011;40500;51.084;16.958;2023-03-31T02:51:07;7.50;;;4.60;;
54599;SDS011;40500;51.084;16.958;2023-03-31T02:54:08;5.60;;;4.50;;
54599;SDS011;40500;51.084;16.958;2023-03-31T02:57:03;6.20;;;3.60;;
54599;SDS011;40500;51.084;16.958;2023-03-31T02:59:51;6.40;;;4.10;;
54599;SDS011;40500;51.084;16.958;2023-03-31T03:02:34;5.30;;;4.50;;
54599;SDS011;40500;51.084;16.958;2023-03-31T03:05:16;7.60;;;4.80;;
54599;SDS011;40500;51.084;16.958;2023-03-31T03:08:15;7.40;;;4.50;;
54599;SDS011;40500;51.084;16.958;2023-03-31T03:10:58;6.40;;;4.30;;
54599;SDS011;40500;51.084;16.958;2023-03-31T03:13:39;5.50;;;4.20;;
54599;SDS011;40500;51.084;16.958;2023-03-31T03:16:16;7.20;;;4.20;;
54599;SDS011;40500;51.084;16.958;2023-03-31T03:21:25;5.60;;;4.00;;
54599;SDS011;40500;51.084;16.958;2023-03-31T03:23:56;6.00;;;3.70;;
54599;SDS011;40500;51.084;16.958;2023-03-31T03:26:28;6.00;;;3.60;;
54599;SDS011;40500;51.084;16.958;2023-03-31T03:29:01;5.90;;;4.10;;
54599;SDS011;40500;51.084;16.958;2023-03-31T03:31:32;5.50;;;4.20;;
54599;SDS011;40500;51.084;16.958;2023-03-31T03:34:02;5.90;;;4.20;;
54599;SDS011;40500;51.084;16.958;2023-03-31T03:36:34;5.60;;;3.90;;
54599;SDS011;40500;51.084;16.958;2023-03-31T03:39:05;7.70;;;3.90;;
54599;SDS011;40500;51.084;16.958;2023-03-31T03:41:36;6.60;;;3.90;;
54599;SDS011;40500;51.084;16.958;2023-03-31T03:44:06;4.70;;;3.80;;
54599;SDS011;40500;51.084;16.958;2023-03-31T03:46:37;5.40;;;3.90;;
54599;SDS011;40500;51.084;16.958;2023-03-31T03:49:07;4.10;;;3.30;;
54599;SDS011;40500;51.084;16.958;2023-03-31T03:51:38;5.30;;;3.60;;
54599;SDS011;40500;51.084;16.958;2023-03-31T03:54:08;3.50;;;2.90;;
54599;SDS011;40500;51.084;16.958;2023-03-31T03:56:38;3.70;;;3.00;;
54599;SDS011;40500;51.084;16.958;2023-03-31T03:59:09;5.40;;;2.90;;
54599;SDS011;40500;51.084;16.958;2023-03-31T04:01:40;5.00;;;3.10;;
54599;SDS011;40500;51.084;16.958;2023-03-31T04:04:10;4.50;;;3.00;;
54599;SDS011;40500;51.084;16.958;2023-03-31T04:06:41;4.00;;;3.00;;
54599;SDS011;40500;51.084;16.958;2023-03-31T04:09:11;4.50;;;3.10;;
54599;SDS011;40500;51.084;16.958;2023-03-31T04:11:42;5.10;;;3.30;;
54599;SDS011;40500;51.084;16.958;2023-03-31T04:14:12;3.70;;;3.40;;
54599;SDS011;40500;51.084;16.958;2023-03-31T04:16:43;2.70;;;2.50;;
54599;SDS011;40500;51.084;16.958;2023-03-31T04:19:15;4.80;;;2.90;;
54599;SDS011;40500;51.084;16.958;2023-03-31T04:21:46;5.10;;;2.90;;
54599;SDS011;40500;51.084;16.958;2023-03-31T04:24:25;3.70;;;2.90;;
54599;SDS011;40500;51.084;16.958;2023-03-31T04:27:00;5.70;;;3.10;;
54599;SDS011;40500;51.084;16.958;2023-03-31T04:29:34;4.30;;;2.80;;
54599;SDS011;40500;51.084;16.958;2023-03-31T04:32:05;3.40;;;2.90;;
54599;SDS011;40500;51.084;16.958;2023-03-31T04:34:36;3.80;;;3.10;;
54599;SDS011;40500;51.084;16.958;2023-03-31T04:37:06;8.20;;;2.80;;
54599;SDS011;40500;51.084;16.958;2023-03-31T04:39:37;4.30;;;3.20;;
54599;SDS011;40500;51.084;16.958;2023-03-31T04:42:07;4.70;;;3.00;;
54599;SDS011;40500;51.084;16.958;2023-03-31T04:44:38;5.70;;;3.60;;
54599;SDS011;40500;51.084;16.958;2023-03-31T04:47:08;4.90;;;3.30;;
54599;SDS011;40500;51.084;16.958;2023-03-31T04:49:38;3.90;;;3.30;;
54599;SDS011;40500;51.084;16.958;2023-03-31T04:52:09;6.10;;;4.10;;
54599;SDS011;40500;51.084;16.958;2023-03-31T04:54:39;9.00;;;4.70;;
54599;SDS011;40500;51.084;16.958;2023-03-31T04:57:10;6.40;;;4.50;;
54599;SDS011;40500;51.084;16.958;2023-03-31T04:59:40;6.20;;;4.60;;
54599;SDS011;40500;51.084;16.958;2023-03-31T05:02:12;5.50;;;4.40;;
54599;SDS011;40500;51.084;16.958;2023-03-31T05:04:52;11.50;;;4.90;;
54599;SDS011;40500;51.084;16.958;2023-03-31T05:07:22;5.50;;;4.50;;
54599;SDS011;40500;51.084;16.958;2023-03-31T05:09:53;8.20;;;5.00;;
54599;SDS011;40500;51.084;16.958;2023-03-31T05:12:23;7.50;;;5.70;;
54599;SDS011;40500;51.084;16.958;2023-03-31T05:14:54;8.40;;;5.60;;
54599;SDS011;40500;51.084;16.958;2023-03-31T05:17:24;8.90;;;7.10;;
54599;SDS011;40500;51.084;16.958;2023-03-31T05:19:54;11.00;;;7.30;;
54599;SDS011;40500;51.084;16.958;2023-03-31T05:22:25;7.50;;;6.20;;
54599;SDS011;40500;51.084;16.958;2023-03-31T05:24:55;8.90;;;6.20;;
54599;SDS011;40500;51.084;16.958;2023-03-31T05:27:26;6.40;;;5.00;;
54599;SDS011;40500;51.084;16.958;2023-03-31T05:29:56;7.80;;;5.10;;
54599;SDS011;40500;51.084;16.958;2023-03-31T05:32:27;7.20;;;5.00;;
54599;SDS011;40500;51.084;16.958;2023-03-31T05:34:58;6.70;;;5.20;;
54599;SDS011;40500;51.084;16.958;2023-03-31T05:37:29;6.70;;;5.10;;
54599;SDS011;40500;51.084;16.958;2023-03-31T05:39:59;7.60;;;4.40;;
54599;SDS011;40500;51.084;16.958;2023-03-31T05:42:31;5.90;;;4.10;;
54599;SDS011;40500;51.084;16.958;2023-03-31T05:45:02;4.60;;;4.20;;
54599;SDS011;40500;51.084;16.958;2023-03-31T05:47:35;7.70;;;3.50;;
54599;SDS011;40500;51.084;16.958;2023-03-31T05:50:06;5.60;;;3.90;;
54599;SDS011;40500;51.084;16.958;2023-03-31T05:52:41;5.60;;;3.60;;
54599;SDS011;40500;51.084;16.958;2023-03-31T05:55:11;6.70;;;4.30;;
54599;SDS011;40500;51.084;16.958;2023-03-31T05:57:42;6.70;;;4.30;;
54599;SDS011;40500;51.084;16.958;2023-03-31T06:00:14;4.10;;;3.50;;
54599;SDS011;40500;51.084;16.958;2023-03-31T06:02:45;7.30;;;3.60;;
54599;SDS011;40500;51.084;16.958;2023-03-31T06:05:15;5.00;;;3.10;;
54599;SDS011;40500;51.084;16.958;2023-03-31T06:07:46;6.40;;;3.90;;
54599;SDS011;40500;51.084;16.958;2023-03-31T06:10:16;4.00;;;3.60;;
54599;SDS011;40500;51.084;16.958;2023-03-31T06:12:47;10.20;;;4.00;;
54599;SDS011;40500;51.084;16.958;2023-03-31T06:15:17;5.20;;;3.60;;
54599;SDS011;40500;51.084;16.958;2023-03-31T06:17:48;3.60;;;2.80;;
54599;SDS011;40500;51.084;16.958;2023-03-31T06:20:18;4.90;;;3.60;;
54599;SDS011;40500;51.084;16.958;2023-03-31T06:22:55;3.60;;;3.20;;
54599;SDS011;40500;51.084;16.958;2023-03-31T06:25:25;3.70;;;3.20;;
54599;SDS011;40500;51.084;16.958;2023-03-31T06:28:10;4.70;;;3.70;;
54599;SDS011;40500;51.084;16.958;2023-03-31T06:30:41;5.20;;;4.00;;
54599;SDS011;40500;51.084;16.958;2023-03-31T06:33:11;5.40;;;3.90;;
54599;SDS011;40500;51.084;16.958;2023-03-31T06:35:43;4.40;;;4.00;;
54599;SDS011;40500;51.084;16.958;2023-03-31T06:38:13;6.90;;;5.20;;
54599;SDS011;40500;51.084;16.958;2023-03-31T06:40:43;6.90;;;4.20;;
54599;SDS011;40500;51.084;16.958;2023-03-31T06:43:14;5.90;;;4.10;;
54599;SDS011;40500;51.084;16.958;2023-03-31T06:45:44;5.40;;;3.90;;
54599;SDS011;40500;51.084;16.958;2023-03-31T06:48:15;4.80;;;3.50;;
54599;SDS011;40500;51.084;16.958;2023-03-31T06:50:45;4.30;;;3.90;;
54599;SDS011;40500;51.084;16.958;2023-03-31T06:53:15;5.50;;;4.20;;
54599;SDS011;40500;51.084;16.958;2023-03-31T06:55:46;5.70;;;4.60;;
54599;SDS011;40500;51.084;16.958;2023-03-31T06:58:16;5.20;;;4.20;;
54599;SDS011;40500;51.084;16.958;2023-03-31T07:00:47;4.80;;;4.00;;
54599;SDS011;40500;51.084;16.958;2023-03-31T07:03:18;5.90;;;4.10;;
54599;SDS011;40500;51.084;16.958;2023-03-31T07:05:52;8.20;;;4.10;;
54599;SDS011;40500;51.084;16.958;2023-03-31T07:08:24;5.40;;;3.60;;
54599;SDS011;40500;51.084;16.958;2023-03-31T07:10:55;5.60;;;3.90;;
54599;SDS011;40500;51.084;16.958;2023-03-31T07:13:27;5.20;;;4.10;;
54599;SDS011;40500;51.084;16.958;2023-03-31T07:15:58;6.50;;;4.70;;
54599;SDS011;40500;51.084;16.958;2023-03-31T07:18:28;6.70;;;4.90;;
54599;SDS011;40500;51.084;16.958;2023-03-31T07:21:02;8.30;;;5.30;;
54599;SDS011;40500;51.084;16.958;2023-03-31T07:23:37;8.30;;;4.70;;
54599;SDS011;40500;51.084;16.958;2023-03-31T07:26:07;7.00;;;5.10;;
54599;SDS011;40500;51.084;16.958;2023-03-31T07:28:38;8.00;;;5.20;;
54599;SDS011;40500;51.084;16.958;2023-03-31T07:31:12;7.60;;;5.50;;
54599;SDS011;40500;51.084;16.958;2023-03-31T07:33:43;6.50;;;4.50;;
54599;SDS011;40500;51.084;16.958;2023-03-31T07:36:13;6.60;;;4.30;;
54599;SDS011;40500;51.084;16.958;2023-03-31T07:38:45;5.50;;;4.10;;
54599;SDS011;40500;51.084;16.958;2023-03-31T07:41:17;6.20;;;4.30;;
54599;SDS011;40500;51.084;16.958;2023-03-31T07:43:49;4.90;;;3.90;;
54599;SDS011;40500;51.084;16.958;2023-03-31T07:46:20;5.20;;;4.30;;
54599;SDS011;40500;51.084;16.958;2023-03-31T07:48:53;8.00;;;5.10;;
54599;SDS011;40500;51.084;16.958;2023-03-31T07:51:25;5.70;;;4.60;;
54599;SDS011;40500;51.084;16.958;2023-03-31T07:53:55;10.10;;;4.30;;
54599;SDS011;40500;51.084;16.958;2023-03-31T07:56:26;4.30;;;3.90;;
54599;SDS011;40500;51.084;16.958;2023-03-31T07:58:56;4.10;;;3.70;;
54599;SDS011;40500;51.084;16.958;2023-03-31T08:01:27;6.10;;;4.20;;
54599;SDS011;40500;51.084;16.958;2023-03-31T08:03:58;6.60;;;4.30;;
54599;SDS011;40500;51.084;16.958;2023-03-31T08:06:28;6.50;;;4.80;;
54599;SDS011;40500;51.084;16.958;2023-03-31T08:08:59;6.90;;;5.30;;
54599;SDS011;40500;51.084;16.958;2023-03-31T08:11:30;6.80;;;4.10;;
54599;SDS011;40500;51.084;16.958;2023-03-31T08:14:01;4.30;;;3.90;;
54599;SDS011;40500;51.084;16.958;2023-03-31T08:16:31;6.10;;;4.40;;
54599;SDS011;40500;51.084;16.958;2023-03-31T08:19:01;4.80;;;3.70;;
54599;SDS011;40500;51.084;16.958;2023-03-31T08:21:32;7.10;;;4.40;;
54599;SDS011;40500;51.084;16.958;2023-03-31T08:24:02;7.30;;;4.20;;
54599;SDS011;40500;51.084;16.958;2023-03-31T08:26:33;6.40;;;4.70;;
54599;SDS011;40500;51.084;16.958;2023-03-31T08:29:03;6.70;;;4.40;;
54599;SDS011;40500;51.084;16.958;2023-03-31T08:31:34;8.00;;;4.30;;
54599;SDS011;40500;51.084;16.958;2023-03-31T08:34:05;6.00;;;4.50;;
54599;SDS011;40500;51.084;16.958;2023-03-31T08:36:36;4.50;;;4.10;;
54599;SDS011;40500;51.084;16.958;2023-03-31T08:39:06;9.80;;;4.50;;
54599;SDS011;40500;51.084;16.958;2023-03-31T08:41:40;5.50;;;4.50;;
54599;SDS011;40500;51.084;16.958;2023-03-31T08:44:20;4.30;;;3.60;;
54599;SDS011;40500;51.084;16.958;2023-03-31T08:46:55;6.60;;;4.80;;
54599;SDS011;40500;51.084;16.958;2023-03-31T08:49:27;6.30;;;3.40;;
54599;SDS011;40500;51.084;16.958;2023-03-31T08:52:09;5.90;;;4.20;;
54599;SDS011;40500;51.084;16.958;2023-03-31T08:54:44;6.50;;;4.00;;
54599;SDS011;40500;51.084;16.958;2023-03-31T08:57:18;7.40;;;3.80;;
54599;SDS011;40500;51.084;16.958;2023-03-31T08:59:52;4.80;;;3.20;;
54599;SDS011;40500;51.084;16.958;2023-03-31T09:02:30;7.10;;;2.70;;
54599;SDS011;40500;51.084;16.958;2023-03-31T09:05:24;3.80;;;2.20;;
54599;SDS011;40500;51.084;16.958;2023-03-31T09:08:22;9.00;;;3.10;;
54599;SDS011;40500;51.084;16.958;2023-03-31T09:11:04;2.60;;;2.00;;
54599;SDS011;40500;51.084;16.958;2023-03-31T09:13:46;2.90;;;2.10;;
54599;SDS011;40500;51.084;16.958;2023-03-31T09:16:25;4.60;;;2.20;;
54599;SDS011;40500;51.084;16.958;2023-03-31T09:19:01;3.50;;;2.50;;
54599;SDS011;40500;51.084;16.958;2023-03-31T09:21:39;4.60;;;2.30;;
54599;SDS011;40500;51.084;16.958;2023-03-31T09:24:13;4.40;;;2.50;;
54599;SDS011;40500;51.084;16.958;2023-03-31T09:26:48;4.40;;;2.50;;
54599;SDS011;40500;51.084;16.958;2023-03-31T09:29:23;5.40;;;2.80;;
54599;SDS011;40500;51.084;16.958;2023-03-31T09:32:01;3.80;;;2.30;;
54599;SDS011;40500;51.084;16.958;2023-03-31T09:34:41;4.60;;;2.50;;
54599;SDS011;40500;51.084;16.958;2023-03-31T09:37:13;4.20;;;2.60;;
54599;SDS011;40500;51.084;16.958;2023-03-31T09:39:43;4.70;;;2.90;;
54599;SDS011;40500;51.084;16.958;2023-03-31T09:42:14;5.40;;;2.90;;
54599;SDS011;40500;51.084;16.958;2023-03-31T09:44:46;3.80;;;2.40;;
54599;SDS011;40500;51.084;16.958;2023-03-31T09:47:19;4.40;;;3.20;;
54599;SDS011;40500;51.084;16.958;2023-03-31T09:49:55;4.50;;;2.90;;
54599;SDS011;40500;51.084;16.958;2023-03-31T09:52:27;4.50;;;3.00;;
54599;SDS011;40500;51.084;16.958;2023-03-31T09:55:00;4.80;;;3.10;;
54599;SDS011;40500;51.084;16.958;2023-03-31T09:57:33;4.40;;;2.80;;
54599;SDS011;40500;51.084;16.958;2023-03-31T10:00:13;4.90;;;2.90;;
54599;SDS011;40500;51.084;16.958;2023-03-31T10:02:46;7.30;;;3.10;;
54599;SDS011;40500;51.084;16.958;2023-03-31T10:05:20;4.20;;;2.50;;
54599;SDS011;40500;51.084;16.958;2023-03-31T10:08:11;3.90;;;2.50;;
54599;SDS011;40500;51.084;16.958;2023-03-31T10:10:48;3.30;;;2.30;;
54599;SDS011;40500;51.084;16.958;2023-03-31T10:13:22;3.70;;;2.20;;
54599;SDS011;40500;51.084;16.958;2023-03-31T10:16:00;2.40;;;2.10;;
54599;SDS011;40500;51.084;16.958;2023-03-31T10:18:34;5.10;;;2.40;;
54599;SDS011;40500;51.084;16.958;2023-03-31T10:21:06;3.10;;;2.20;;
54599;SDS011;40500;51.084;16.958;2023-03-31T10:23:50;4.10;;;2.60;;
54599;SDS011;40500;51.084;16.958;2023-03-31T10:26:24;4.70;;;1.90;;
54599;SDS011;40500;51.084;16.958;2023-03-31T10:28:56;4.00;;;2.60;;
54599;SDS011;40500;51.084;16.958;2023-03-31T10:31:34;7.50;;;2.30;;
54599;SDS011;40500;51.084;16.958;2023-03-31T10:34:06;4.80;;;2.40;;
54599;SDS011;40500;51.084;16.958;2023-03-31T10:36:45;2.80;;;2.20;;
54599;SDS011;40500;51.084;16.958;2023-03-31T10:39:18;8.40;;;2.00;;
54599;SDS011;40500;51.084;16.958;2023-03-31T10:41:54;5.00;;;1.80;;
54599;SDS011;40500;51.084;16.958;2023-03-31T10:44:32;6.10;;;2.50;;
54599;SDS011;40500;51.084;16.958;2023-03-31T10:47:06;5.30;;;2.20;;
54599;SDS011;40500;51.084;16.958;2023-03-31T10:49:48;3.90;;;1.50;;
54599;SDS011;40500;51.084;16.958;2023-03-31T10:52:25;3.80;;;2.00;;
54599;SDS011;40500;51.084;16.958;2023-03-31T10:54:56;4.60;;;1.90;;
54599;SDS011;40500;51.084;16.958;2023-03-31T10:57:31;2.90;;;1.50;;
54599;SDS011;40500;51.084;16.958;2023-03-31T11:00:11;4.50;;;1.70;;
54599;SDS011;40500;51.084;16.958;2023-03-31T11:02:57;5.60;;;1.60;;
54599;SDS011;40500;51.084;16.958;2023-03-31T11:05:40;3.40;;;1.90;;
54599;SDS011;40500;51.084;16.958;2023-03-31T11:08:21;4.00;;;2.20;;
54599;SDS011;40500;51.084;16.958;2023-03-31T11:11:04;3.50;;;2.10;;
54599;SDS011;40500;51.084;16.958;2023-03-31T11:13:43;4.60;;;1.80;;
54599;SDS011;40500;51.084;16.958;2023-03-31T11:16:24;5.40;;;1.80;;
54599;SDS011;40500;51.084;16.958;2023-03-31T11:19:04;5.60;;;2.00;;
54599;SDS011;40500;51.084;16.958;2023-03-31T11:21:49;8.00;;;2.10;;
54599;SDS011;40500;51.084;16.958;2023-03-31T11:24:32;3.90;;;2.00;;
54599;SDS011;40500;51.084;16.958;2023-03-31T11:27:19;7.30;;;2.00;;
54599;SDS011;40500;51.084;16.958;2023-03-31T11:29:59;5.50;;;2.00;;
54599;SDS011;40500;51.084;16.958;2023-03-31T11:32:43;3.10;;;1.80;;
54599;SDS011;40500;51.084;16.958;2023-03-31T11:35:32;8.70;;;2.20;;
54599;SDS011;40500;51.084;16.958;2023-03-31T11:38:18;3.00;;;2.10;;
54599;SDS011;40500;51.084;16.958;2023-03-31T11:40:59;6.10;;;2.30;;
54599;SDS011;40500;51.084;16.958;2023-03-31T11:43:34;3.60;;;1.80;;
54599;SDS011;40500;51.084;16.958;2023-03-31T11:46:09;4.80;;;2.20;;
54599;SDS011;40500;51.084;16.958;2023-03-31T11:48:45;5.50;;;2.30;;
54599;SDS011;40500;51.084;16.958;2023-03-31T11:51:20;6.90;;;1.70;;
54599;SDS011;40500;51.084;16.958;2023-03-31T11:53:55;6.00;;;2.10;;
54599;SDS011;40500;51.084;16.958;2023-03-31T11:56:29;11.10;;;2.80;;
54599;SDS011;40500;51.084;16.958;2023-03-31T11:59:04;5.30;;;2.00;;
54599;SDS011;40500;51.084;16.958;2023-03-31T12:01:41;4.00;;;1.50;;
54599;SDS011;40500;51.084;16.958;2023-03-31T12:04:19;6.60;;;2.80;;
54599;SDS011;40500;51.084;16.958;2023-03-31T12:07:02;3.50;;;1.30;;
54599;SDS011;40500;51.084;16.958;2023-03-31T12:09:42;6.90;;;1.90;;
54599;SDS011;40500;51.084;16.958;2023-03-31T12:12:21;6.00;;;1.60;;
54599;SDS011;40500;51.084;16.958;2023-03-31T12:14:58;5.40;;;1.50;;
54599;SDS011;40500;51.084;16.958;2023-03-31T12:17:35;4.00;;;1.60;;
54599;SDS011;40500;51.084;16.958;2023-03-31T12:20:13;2.50;;;1.40;;
54599;SDS011;40500;51.084;16.958;2023-03-31T12:22:48;5.10;;;1.70;;
54599;SDS011;40500;51.084;16.958;2023-03-31T12:25:20;4.20;;;1.50;;
54599;SDS011;40500;51.084;16.958;2023-03-31T12:27:53;3.00;;;1.60;;
54599;SDS011;40500;51.084;16.958;2023-03-31T12:30:26;6.30;;;2.10;;
54599;SDS011;40500;51.084;16.958;2023-03-31T12:33:02;3.80;;;1.60;;
54599;SDS011;40500;51.084;16.958;2023-03-31T12:35:42;4.40;;;2.00;;
54599;SDS011;40500;51.084;16.958;2023-03-31T12:38:28;3.10;;;1.20;;
54599;SDS011;40500;51.084;16.958;2023-03-31T12:41:11;2.90;;;1.70;;
54599;SDS011;40500;51.084;16.958;2023-03-31T12:43:51;3.50;;;1.30;;
54599;SDS011;40500;51.084;16.958;2023-03-31T12:46:38;2.90;;;1.50;;
54599;SDS011;40500;51.084;16.958;2023-03-31T12:49:22;3.20;;;1.40;;
54599;SDS011;40500;51.084;16.958;2023-03-31T12:52:04;5.10;;;1.70;;
54599;SDS011;40500;51.084;16.958;2023-03-31T12:54:46;4.30;;;1.40;;
54599;SDS011;40500;51.084;16.958;2023-03-31T12:57:27;4.30;;;1.90;;
54599;SDS011;40500;51.084;16.958;2023-03-31T13:06:03;3.90;;;1.70;;
54599;SDS011;40500;51.084;16.958;2023-03-31T13:08:50;6.50;;;2.20;;
54599;SDS011;40500;51.084;16.958;2023-03-31T13:11:32;5.20;;;2.20;;
54599;SDS011;40500;51.084;16.958;2023-03-31T13:14:11;2.80;;;1.80;;
54599;SDS011;40500;51.084;16.958;2023-03-31T13:16:45;4.30;;;1.70;;
54599;SDS011;40500;51.084;16.958;2023-03-31T13:19:25;3.60;;;2.00;;
54599;SDS011;40500;51.084;16.958;2023-03-31T13:21:59;3.60;;;1.80;;
54599;SDS011;40500;51.084;16.958;2023-03-31T13:24:32;5.10;;;2.50;;
54599;SDS011;40500;51.084;16.958;2023-03-31T13:29:57;2.90;;;2.00;;
54599;SDS011;40500;51.084;16.958;2023-03-31T13:32:28;2.70;;;1.70;;
54599;SDS011;40500;51.084;16.958;2023-03-31T13:35:02;3.30;;;1.90;;
54599;SDS011;40500;51.084;16.958;2023-03-31T13:40:47;4.40;;;1.50;;
54599;SDS011;40500;51.084;16.958;2023-03-31T13:43:30;3.90;;;1.80;;
54599;SDS011;40500;51.084;16.958;2023-03-31T13:46:36;5.00;;;2.00;;
54599;SDS011;40500;51.084;16.958;2023-03-31T13:52:30;2.80;;;2.00;;
54599;SDS011;40500;51.084;16.958;2023-03-31T13:55:19;4.80;;;2.00;;
54599;SDS011;40500;51.084;16.958;2023-03-31T13:58:18;6.20;;;2.30;;
54599;SDS011;40500;51.084;16.958;2023-03-31T14:04:13;3.70;;;1.80;;
54599;SDS011;40500;51.084;16.958;2023-03-31T14:07:08;4.30;;;2.00;;
54599;SDS011;40500;51.084;16.958;2023-03-31T14:09:43;4.50;;;2.30;;
54599;SDS011;40500;51.084;16.958;2023-03-31T14:12:20;4.70;;;2.10;;
54599;SDS011;40500;51.084;16.958;2023-03-31T14:14:59;3.00;;;2.00;;
54599;SDS011;40500;51.084;16.958;2023-03-31T14:17:30;6.10;;;2.80;;
54599;SDS011;40500;51.084;16.958;2023-03-31T14:22:58;6.30;;;2.50;;
54599;SDS011;40500;51.084;16.958;2023-03-31T14:25:45;4.40;;;2.80;;
54599;SDS011;40500;51.084;16.958;2023-03-31T14:31:20;5.20;;;2.60;;
54599;SDS011;40500;51.084;16.958;2023-03-31T14:34:10;3.70;;;2.50;;
54599;SDS011;40500;51.084;16.958;2023-03-31T14:36:52;8.50;;;3.00;;
54599;SDS011;40500;51.084;16.958;2023-03-31T14:39:29;4.50;;;2.50;;
54599;SDS011;40500;51.084;16.958;2023-03-31T14:42:03;3.50;;;2.40;;
54599;SDS011;40500;51.084;16.958;2023-03-31T14:44:40;3.50;;;2.50;;
54599;SDS011;40500;51.084;16.958;2023-03-31T14:47:15;4.70;;;3.00;;
54599;SDS011;40500;51.084;16.958;2023-03-31T14:49:58;5.70;;;3.30;;
54599;SDS011;40500;51.084;16.958;2023-03-31T14:52:33;5.10;;;2.50;;
54599;SDS011;40500;51.084;16.958;2023-03-31T14:55:04;4.30;;;2.60;;
54599;SDS011;40500;51.084;16.958;2023-03-31T14:57:42;4.70;;;2.40;;
54599;SDS011;40500;51.084;16.958;2023-03-31T15:00:15;4.60;;;2.60;;
54599;SDS011;40500;51.084;16.958;2023-03-31T15:02:52;6.20;;;2.30;;
54599;SDS011;40500;51.084;16.958;2023-03-31T15:05:27;4.60;;;2.40;;
54599;SDS011;40500;51.084;16.958;2023-03-31T15:07:59;3.80;;;2.40;;
54599;SDS011;40500;51.084;16.958;2023-03-31T15:10:34;2.80;;;2.00;;
54599;SDS011;40500;51.084;16.958;2023-03-31T15:13:08;3.30;;;2.50;;
54599;SDS011;40500;51.084;16.958;2023-03-31T15:15:43;4.60;;;2.10;;
54599;SDS011;40500;51.084;16.958;2023-03-31T15:18:14;5.30;;;2.20;;
54599;SDS011;40500;51.084;16.958;2023-03-31T15:20:45;2.90;;;2.00;;
54599;SDS011;40500;51.084;16.958;2023-03-31T15:23:20;3.00;;;2.00;;
54599;SDS011;40500;51.084;16.958;2023-03-31T15:25:54;2.20;;;1.80;;
54599;SDS011;40500;51.084;16.958;2023-03-31T15:28:26;3.90;;;1.80;;
54599;SDS011;40500;51.084;16.958;2023-03-31T15:31:03;3.30;;;1.80;;
54599;SDS011;40500;51.084;16.958;2023-03-31T15:33:38;1.80;;;1.50;;
54599;SDS011;40500;51.084;16.958;2023-03-31T15:36:09;3.50;;;2.40;;
54599;SDS011;40500;51.084;16.958;2023-03-31T15:38:40;2.60;;;1.60;;
54599;SDS011;40500;51.084;16.958;2023-03-31T15:41:11;3.80;;;1.80;;
54599;SDS011;40500;51.084;16.958;2023-03-31T15:43:45;3.60;;;1.90;;
54599;SDS011;40500;51.084;16.958;2023-03-31T15:46:19;1.90;;;1.50;;
54599;SDS011;40500;51.084;16.958;2023-03-31T15:48:54;2.60;;;2.30;;
54599;SDS011;40500;51.084;16.958;2023-03-31T15:51:27;3.30;;;1.90;;
54599;SDS011;40500;51.084;16.958;2023-03-31T15:54:01;3.60;;;1.90;;